createdAt,value
2023-03-20T00:03:19.678Z,4.38
2023-03-20T00:09:25.646Z,4.55
2023-03-20T00:15:30.978Z,4.15
2023-03-20T00:21:34.528Z,4.57
2023-03-20T00:27:39.584Z,5.05
2023-03-20T00:33:42.975Z,4.70
2023-03-20T00:39:46.352Z,4.80
2023-03-20T00:45:51.134Z,4.75
2023-03-20T00:51:54.699Z,4.85
2023-03-20T00:57:59.365Z,5.47
2023-03-20T01:04:04.201Z,5.00
2023-03-20T01:10:08.296Z,4.90
2023-03-20T01:16:19.789Z,4.78
2023-03-20T01:22:24.608Z,4.78
2023-03-20T01:28:34.120Z,4.22
2023-03-20T01:34:37.513Z,4.63
2023-03-20T01:40:46.588Z,4.28
2023-03-20T01:46:50.742Z,5.05
2023-03-20T01:52:58.215Z,4.60
2023-03-20T01:59:05.636Z,5.10
2023-03-20T02:05:11.101Z,4.07
2023-03-20T02:11:15.345Z,4.32
2023-03-20T02:17:20.302Z,4.13
2023-03-20T02:23:38.528Z,4.20
2023-03-20T02:29:59.577Z,4.57
2023-03-20T02:36:14.087Z,4.68
2023-03-20T02:42:22.396Z,4.38
2023-03-20T02:48:30.550Z,4.50
2023-03-20T02:54:41.022Z,4.40
2023-03-20T03:00:49.267Z,4.50
2023-03-20T03:06:55.950Z,3.85
2023-03-20T03:13:00.992Z,3.20
2023-03-20T03:19:09.402Z,3.95
2023-03-20T03:25:14.691Z,4.18
2023-03-20T03:31:19.114Z,5.03
2023-03-20T03:37:28.608Z,4.00
2023-03-20T03:43:34.528Z,4.13
2023-03-20T03:49:39.709Z,4.05
2023-03-20T03:55:46.370Z,3.85
2023-03-20T04:01:51.759Z,3.60
2023-03-20T04:07:58.669Z,4.20
2023-03-20T04:14:03.691Z,4.30
2023-03-20T04:20:09.705Z,4.70
2023-03-20T04:26:13.163Z,3.80
2023-03-20T04:32:17.932Z,3.72
2023-03-20T04:38:23.358Z,3.65
2023-03-20T04:44:26.765Z,4.20
2023-03-20T04:50:31.768Z,3.58
2023-03-20T04:56:35.173Z,4.18
2023-03-20T05:02:38.701Z,4.15
2023-03-20T05:08:43.454Z,4.22
2023-03-20T05:14:46.825Z,5.50
2023-03-20T05:20:51.015Z,5.15
2023-03-20T05:26:55.979Z,4.95
2023-03-20T05:33:00.149Z,5.30
2023-03-20T05:39:03.654Z,3.53
2023-03-20T05:45:09.557Z,5.43
2023-03-20T05:51:13.254Z,4.93
2023-03-20T05:57:18.292Z,4.07
2023-03-20T06:03:23.120Z,4.20
2023-03-20T06:09:26.617Z,3.95
2023-03-20T06:15:30.133Z,3.75
2023-03-20T06:21:35.036Z,4.65
2023-03-20T06:27:38.522Z,3.90
2023-03-20T06:33:41.912Z,3.78
2023-03-20T06:39:46.677Z,4.85
2023-03-20T06:45:50.291Z,3.65
2023-03-20T06:51:54.092Z,4.20
2023-03-20T06:57:58.973Z,3.17
2023-03-20T07:04:02.429Z,4.15
2023-03-20T07:10:06.213Z,3.15
2023-03-20T07:16:11.734Z,3.67
2023-03-20T07:22:20.268Z,4.40
2023-03-20T07:28:23.826Z,4.07
2023-03-20T07:34:28.806Z,3.97
2023-03-20T07:40:32.376Z,3.92
2023-03-20T07:46:35.778Z,3.88
2023-03-20T07:52:41.063Z,4.07
2023-03-20T07:58:44.640Z,4.85
2023-03-20T08:04:48.269Z,4.22
2023-03-20T08:10:53.883Z,3.88
2023-03-20T08:17:12.859Z,4.15
2023-03-20T08:23:20.537Z,4.55
2023-03-20T08:29:25.629Z,4.13
2023-03-20T08:35:33.357Z,3.90
2023-03-20T08:41:39.117Z,4.00
2023-03-20T08:47:43.912Z,3.75
2023-03-20T08:53:47.309Z,4.13
2023-03-20T08:59:50.732Z,4.70
2023-03-20T09:05:55.505Z,3.85
2023-03-20T09:11:59.376Z,4.30
2023-03-20T09:18:04.136Z,3.88
2023-03-20T09:24:09.523Z,4.30
2023-03-20T09:30:13.628Z,3.97
2023-03-20T09:36:17.127Z,3.83
2023-03-20T09:42:29.166Z,4.38
2023-03-20T09:48:35.260Z,4.65
2023-03-20T09:54:53.666Z,4.43
2023-03-20T10:01:00.724Z,4.07
2023-03-20T10:07:05.589Z,4.30
2023-03-20T10:13:14.340Z,4.43
2023-03-20T10:19:22.708Z,4.80
2023-03-20T10:25:28.145Z,4.50
2023-03-20T10:31:35.774Z,4.97
2023-03-20T10:37:45.729Z,5.07
2023-03-20T10:43:50.781Z,4.65
2023-03-20T10:49:56.350Z,4.72
2023-03-20T10:56:02.466Z,4.55
2023-03-20T11:02:11.237Z,4.63
2023-03-20T11:08:16.395Z,5.00
2023-03-20T11:14:22.847Z,5.43
2023-03-20T11:20:26.629Z,5.53
2023-03-20T11:26:35.852Z,4.53
2023-03-20T11:32:43.540Z,4.85
2023-03-20T11:38:47.560Z,4.38
2023-03-20T11:44:58.869Z,4.82
2023-03-20T11:51:06.200Z,4.10
2023-03-20T11:57:28.261Z,4.70
2023-03-20T12:03:45.514Z,4.10
2023-03-20T12:09:52.019Z,3.40
2023-03-20T12:15:57.473Z,3.70
2023-03-20T12:22:04.545Z,3.58
2023-03-20T12:28:14.546Z,3.90
2023-03-20T12:34:21.461Z,2.22
2023-03-20T12:40:28.061Z,2.70
2023-03-20T12:46:37.232Z,3.15
2023-03-20T12:52:46.558Z,2.10
2023-03-20T12:58:52.832Z,2.35
2023-03-20T13:05:02.409Z,2.58
2023-03-20T13:11:09.142Z,2.22
2023-03-20T13:17:17.258Z,2.38
2023-03-20T13:23:26.325Z,2.70
2023-03-20T13:29:33.974Z,2.63
2023-03-20T13:35:42.928Z,2.80
2023-03-20T13:41:48.506Z,2.30
2023-03-20T13:47:53.084Z,1.70
2023-03-20T13:53:59.646Z,1.85
2023-03-20T14:00:08.437Z,1.80
2023-03-20T14:06:19.055Z,1.50
2023-03-20T14:12:25.716Z,1.40
2023-03-20T14:18:31.662Z,1.17
2023-03-20T14:24:38.223Z,1.13
2023-03-20T14:30:43.215Z,1.58
2023-03-20T14:36:52.266Z,1.50
2023-03-20T14:42:57.709Z,1.67
2023-03-20T14:49:03.938Z,1.80
2023-03-20T14:55:30.574Z,1.80
2023-03-20T15:01:48.256Z,1.98
2023-03-20T15:07:51.840Z,1.95
2023-03-20T15:13:57.540Z,2.63
2023-03-20T15:20:03.214Z,2.50
2023-03-20T15:26:06.894Z,2.20
2023-03-20T15:32:15.312Z,2.00
2023-03-20T15:38:19.023Z,1.52
2023-03-20T15:44:24.005Z,1.80
2023-03-20T15:50:28.874Z,1.73
2023-03-20T15:56:43.149Z,1.45
2023-03-20T16:02:48.618Z,1.52
2023-03-20T16:09:01.084Z,1.60
2023-03-20T16:15:05.979Z,1.77
2023-03-20T16:21:10.898Z,1.65
2023-03-20T16:27:17.452Z,1.60
2023-03-20T16:33:20.978Z,1.50
2023-03-20T16:39:27.196Z,1.88
2023-03-20T16:45:32.789Z,1.50
2023-03-20T16:51:37.032Z,1.95
2023-03-20T16:57:41.134Z,2.58
2023-03-20T17:03:50.613Z,2.60
2023-03-20T17:09:55.752Z,2.20
2023-03-20T17:15:59.686Z,2.08
2023-03-20T17:22:05.959Z,2.85
2023-03-20T17:28:12.163Z,3.72
2023-03-20T17:34:15.979Z,2.83
2023-03-20T17:40:22.042Z,3.67
2023-03-20T17:46:27.300Z,2.78
2023-03-20T17:52:30.849Z,3.95
2023-03-20T17:58:35.779Z,4.80
2023-03-20T18:04:39.304Z,2.25
2023-03-20T18:10:43.359Z,2.17
2023-03-20T18:16:48.205Z,1.77
2023-03-20T18:22:53.263Z,2.45
2023-03-20T18:28:57.259Z,2.40
2023-03-20T18:35:02.108Z,2.70
2023-03-20T18:41:06.402Z,2.88
2023-03-20T18:47:11.999Z,2.95
2023-03-20T18:53:16.972Z,2.67
2023-03-20T18:59:20.370Z,2.20
2023-03-20T19:05:24.470Z,2.67
2023-03-20T19:11:29.348Z,2.58
2023-03-20T19:17:32.787Z,3.78
2023-03-20T19:23:36.181Z,3.42
2023-03-20T19:29:41.498Z,3.40
2023-03-20T19:36:01.819Z,3.13
2023-03-20T19:42:37.829Z,3.60
2023-03-20T19:48:46.855Z,5.13
2023-03-20T19:55:02.197Z,4.30
2023-03-20T20:01:14.786Z,4.97
2023-03-20T20:08:06.199Z,4.95
2023-03-20T20:20:08.774Z,8.32
2023-03-20T20:26:13.621Z,5.55
2023-03-20T20:32:17.117Z,5.70
2023-03-20T20:38:40.892Z,5.75
2023-03-20T20:44:45.965Z,5.22
2023-03-20T20:50:50.234Z,5.40
2023-03-20T20:56:53.647Z,6.25
2023-03-20T21:02:58.496Z,6.40
2023-03-20T21:09:02.147Z,6.00
2023-03-20T21:15:06.056Z,5.40
2023-03-20T21:21:11.901Z,6.03
2023-03-20T21:27:16.477Z,6.03
2023-03-20T21:33:20.027Z,5.65
2023-03-20T21:39:24.949Z,6.03
2023-03-20T21:52:45.831Z,6.30
2023-03-20T22:18:12.266Z,6.28
2023-03-20T22:24:54.874Z,5.60
2023-03-20T22:31:03.375Z,5.32
2023-03-20T22:37:35.564Z,5.63
2023-03-20T22:49:34.291Z,5.13
2023-03-20T22:55:39.074Z,5.53
2023-03-20T23:01:42.517Z,6.03
2023-03-20T23:07:46.235Z,4.97
2023-03-20T23:13:51.559Z,4.80
2023-03-20T23:20:08.750Z,5.55
2023-03-20T23:26:16.056Z,5.90
2023-03-20T23:32:21.031Z,5.78
2023-03-20T23:38:24.424Z,6.45
2023-03-20T23:44:27.882Z,6.55
2023-03-20T23:50:46.075Z,6.55
2023-03-20T23:56:55.181Z,5.93
